createdAt,value
2022-11-10T00:00:57.203Z,11.27
2022-11-10T00:03:24.757Z,12.90
2022-11-10T00:05:51.339Z,11.57
2022-11-10T00:08:17.922Z,13.17
2022-11-10T00:11:01.375Z,12.70
2022-11-10T00:13:32.988Z,9.27
2022-11-10T00:16:36.810Z,8.10
2022-11-10T00:19:03.453Z,14.33
2022-11-10T00:21:29.940Z,20.93
2022-11-10T00:23:56.417Z,11.07
2022-11-10T00:26:23.377Z,13.73
2022-11-10T00:28:49.912Z,12.80
2022-11-10T00:31:16.484Z,8.27
2022-11-10T00:33:44.214Z,9.57
2022-11-10T00:36:11.351Z,9.47
2022-11-10T00:38:37.987Z,11.80
2022-11-10T00:41:04.730Z,15.63
2022-11-10T00:43:31.668Z,11.37
2022-11-10T00:45:58.593Z,13.40
2022-11-10T00:48:25.369Z,11.50
2022-11-10T00:50:51.937Z,18.70
2022-11-10T00:53:19.111Z,12.47
2022-11-10T00:55:45.938Z,10.10
2022-11-10T00:58:12.461Z,8.93
2022-11-10T01:00:39.150Z,11.17
2022-11-10T01:03:05.984Z,9.73
2022-11-10T01:05:36.642Z,10.10
2022-11-10T01:08:03.461Z,13.80
2022-11-10T01:10:30.103Z,14.03
2022-11-10T01:12:56.654Z,9.87
2022-11-10T01:15:27.506Z,11.37
2022-11-10T01:17:55.772Z,10.43
2022-11-10T01:20:23.227Z,10.53
2022-11-10T01:22:49.815Z,9.10
2022-11-10T01:25:16.330Z,16.67
2022-11-10T01:27:42.771Z,11.40
2022-11-10T01:30:09.715Z,8.97
2022-11-10T01:32:36.213Z,9.37
2022-11-10T01:35:02.882Z,12.17
2022-11-10T01:37:29.399Z,13.50
2022-11-10T01:39:55.938Z,17.37
2022-11-10T01:42:44.264Z,11.43
2022-11-10T01:45:22.961Z,9.77
2022-11-10T01:47:58.258Z,12.93
2022-11-10T01:50:26.545Z,9.77
2022-11-10T01:52:57.336Z,9.77
2022-11-10T01:55:24.804Z,7.97
2022-11-10T01:57:51.652Z,12.43
2022-11-10T02:00:19.208Z,13.07
2022-11-10T02:03:12.354Z,14.20
2022-11-10T02:05:39.119Z,9.80
2022-11-10T02:08:05.845Z,15.97
2022-11-10T02:10:32.387Z,12.67
2022-11-10T02:12:58.931Z,17.50
2022-11-10T02:15:25.630Z,13.13
2022-11-10T02:17:52.364Z,10.00
2022-11-10T02:20:20.689Z,11.40
2022-11-10T02:22:47.229Z,17.07
2022-11-10T02:25:21.608Z,13.07
2022-11-10T02:27:48.415Z,11.83
2022-11-10T02:30:16.169Z,14.67
2022-11-10T02:32:42.715Z,18.97
2022-11-10T02:35:09.716Z,9.60
2022-11-10T02:37:36.292Z,16.63
2022-11-10T02:40:03.578Z,10.67
2022-11-10T02:42:30.447Z,15.00
2022-11-10T02:44:57.355Z,14.13
2022-11-10T02:47:23.932Z,15.53
2022-11-10T02:49:50.484Z,12.10
2022-11-10T02:52:17.156Z,13.50
2022-11-10T02:54:43.619Z,10.80
2022-11-10T02:57:10.079Z,15.00
2022-11-10T02:59:36.579Z,10.37
2022-11-10T03:02:03.100Z,14.33
2022-11-10T03:04:29.685Z,10.80
2022-11-10T03:06:56.167Z,10.23
2022-11-10T03:09:22.740Z,10.03
2022-11-10T03:11:49.201Z,12.27
2022-11-10T03:14:15.708Z,11.23
2022-11-10T03:16:42.396Z,13.50
2022-11-10T03:19:08.955Z,12.47
2022-11-10T03:21:35.432Z,15.87
2022-11-10T03:24:02.208Z,13.50
2022-11-10T03:26:28.816Z,12.30
2022-11-10T03:28:55.286Z,13.90
2022-11-10T03:31:21.772Z,11.63
2022-11-10T03:33:48.358Z,13.73
2022-11-10T03:36:14.875Z,15.73
2022-11-10T03:38:41.332Z,15.10
2022-11-10T03:41:23.334Z,13.43
2022-11-10T03:43:50.137Z,12.10
2022-11-10T03:46:17.092Z,16.70
2022-11-10T03:48:46.308Z,9.90
2022-11-10T03:51:17.055Z,15.00
2022-11-10T03:53:43.675Z,13.67
2022-11-10T03:56:10.177Z,13.10
2022-11-10T03:58:36.988Z,15.00
2022-11-10T04:01:03.535Z,16.47
2022-11-10T04:03:30.037Z,16.93
2022-11-10T04:06:15.432Z,15.97
2022-11-10T04:09:07.894Z,17.87
2022-11-10T04:11:53.291Z,13.80
2022-11-10T04:14:38.589Z,12.87
2022-11-10T04:17:05.205Z,7.60
2022-11-10T04:19:31.868Z,16.90
2022-11-10T04:21:58.392Z,13.37
2022-11-10T04:24:25.047Z,10.30
2022-11-10T04:26:51.771Z,14.50
2022-11-10T04:29:19.965Z,15.03
2022-11-10T04:31:46.606Z,14.27
2022-11-10T04:34:14.724Z,15.10
2022-11-10T04:36:42.966Z,13.70
2022-11-10T04:39:10.428Z,10.90
2022-11-10T04:41:36.981Z,16.90
2022-11-10T04:44:03.548Z,11.53
2022-11-10T04:46:35.138Z,15.17
2022-11-10T04:49:02.226Z,16.83
2022-11-10T04:51:31.816Z,12.57
2022-11-10T04:53:58.834Z,12.23
2022-11-10T04:56:26.310Z,15.67
2022-11-10T04:58:53.538Z,12.47
2022-11-10T05:01:22.417Z,16.77
2022-11-10T05:03:50.288Z,15.40
2022-11-10T05:06:17.270Z,12.83
2022-11-10T05:08:45.234Z,14.13
2022-11-10T05:11:12.264Z,12.47
2022-11-10T05:13:39.491Z,11.80
2022-11-10T05:16:06.811Z,12.37
2022-11-10T05:18:33.535Z,18.30
2022-11-10T05:21:00.100Z,21.23
2022-11-10T05:23:39.032Z,12.43
2022-11-10T05:26:13.886Z,15.10
2022-11-10T05:28:42.116Z,17.90
2022-11-10T05:31:08.929Z,20.00
2022-11-10T05:33:36.520Z,16.27
2022-11-10T05:36:03.316Z,13.37
2022-11-10T05:38:29.796Z,19.20
2022-11-10T05:40:56.431Z,14.83
2022-11-10T05:43:23.772Z,12.73
2022-11-10T05:45:50.670Z,17.13
2022-11-10T05:48:17.202Z,16.47
2022-11-10T05:50:43.998Z,12.90
2022-11-10T05:53:10.636Z,12.43
2022-11-10T05:55:37.469Z,12.33
2022-11-10T05:58:04.286Z,14.57
2022-11-10T06:00:32.212Z,10.63
2022-11-10T06:03:06.057Z,17.97
2022-11-10T06:05:35.301Z,17.53
2022-11-10T06:08:04.011Z,13.73
2022-11-10T06:10:31.147Z,16.90
2022-11-10T06:13:00.797Z,15.43
2022-11-10T06:15:28.058Z,12.37
2022-11-10T06:17:56.599Z,16.73
2022-11-10T06:20:23.684Z,13.73
2022-11-10T06:22:59.684Z,16.60
2022-11-10T06:25:26.519Z,13.53
2022-11-10T06:27:53.574Z,15.50
2022-11-10T06:30:20.109Z,11.17
2022-11-10T06:32:46.761Z,19.50
2022-11-10T06:35:13.227Z,13.17
2022-11-10T06:37:39.800Z,14.67
2022-11-10T06:40:07.786Z,14.90
2022-11-10T06:42:34.945Z,21.30
2022-11-10T06:45:02.099Z,13.77
2022-11-10T06:47:29.708Z,12.37
2022-11-10T06:49:56.422Z,18.87
2022-11-10T06:52:22.992Z,18.07
2022-11-10T06:54:49.483Z,13.03
2022-11-10T06:57:16.119Z,17.00
2022-11-10T06:59:42.656Z,15.40
2022-11-10T07:02:15.933Z,15.40
2022-11-10T07:04:42.858Z,16.67
2022-11-10T07:07:10.682Z,14.00
2022-11-10T07:09:37.863Z,13.93
2022-11-10T07:12:05.284Z,13.97
2022-11-10T07:14:31.894Z,19.93
2022-11-10T07:16:58.680Z,20.73
2022-11-10T07:19:25.184Z,15.07
2022-11-10T07:21:51.875Z,15.13
2022-11-10T07:24:18.473Z,15.50
2022-11-10T07:26:45.488Z,24.50
2022-11-10T07:29:12.005Z,19.63
2022-11-10T07:31:38.711Z,16.37
2022-11-10T07:34:05.786Z,13.63
2022-11-10T07:36:32.505Z,12.50
2022-11-10T07:38:59.228Z,19.33
2022-11-10T07:41:25.735Z,19.17
2022-11-10T07:43:52.384Z,16.77
2022-11-10T07:46:18.965Z,15.17
2022-11-10T07:48:45.455Z,12.10
2022-11-10T07:51:12.085Z,17.73
2022-11-10T07:53:39.957Z,13.00
2022-11-10T07:56:06.898Z,23.83
2022-11-10T07:58:34.256Z,13.83
2022-11-10T08:01:01.084Z,18.97
2022-11-10T08:03:27.573Z,19.60
2022-11-10T08:05:54.198Z,15.57
2022-11-10T08:08:20.679Z,13.93
2022-11-10T08:10:47.205Z,11.07
2022-11-10T08:13:14.534Z,13.37
2022-11-10T08:15:41.558Z,14.57
2022-11-10T08:18:16.099Z,18.37
2022-11-10T08:20:42.776Z,19.30
2022-11-10T08:23:09.674Z,19.33
2022-11-10T08:25:37.486Z,15.83
2022-11-10T08:28:12.280Z,13.03
2022-11-10T08:30:40.215Z,21.10
2022-11-10T08:33:09.018Z,19.37
2022-11-10T08:35:37.888Z,11.87
2022-11-10T08:38:14.641Z,11.93
2022-11-10T08:40:41.703Z,11.47
2022-11-10T08:43:08.660Z,15.03
2022-11-10T08:45:36.613Z,20.03
2022-11-10T08:48:21.635Z,19.27
2022-11-10T08:50:49.777Z,20.93
2022-11-10T08:53:18.425Z,13.43
2022-11-10T08:55:46.792Z,20.77
2022-11-10T08:58:15.718Z,15.67
2022-11-10T09:00:42.724Z,11.00
2022-11-10T09:03:12.193Z,23.53
2022-11-10T09:05:38.683Z,13.50
2022-11-10T09:08:05.794Z,16.53
2022-11-10T09:10:34.389Z,14.90
2022-11-10T09:13:02.688Z,19.17
2022-11-10T09:15:30.509Z,19.57
2022-11-10T09:18:01.548Z,15.53
2022-11-10T09:20:29.607Z,19.17
2022-11-10T09:22:56.751Z,15.50
2022-11-10T09:25:23.523Z,15.67
2022-11-10T09:27:50.170Z,17.60
2022-11-10T09:30:18.125Z,19.40
2022-11-10T09:32:46.862Z,16.97
2022-11-10T09:35:13.821Z,21.57
2022-11-10T09:37:40.667Z,17.50
2022-11-10T09:40:13.212Z,17.67
2022-11-10T09:42:40.827Z,22.03
2022-11-10T09:45:16.569Z,19.73
2022-11-10T09:47:57.313Z,12.97
2022-11-10T09:50:40.911Z,17.37
2022-11-10T09:53:15.732Z,14.83
2022-11-10T09:56:16.656Z,19.03
2022-11-10T09:58:45.490Z,19.87
2022-11-10T10:01:21.138Z,15.07
2022-11-10T10:03:52.226Z,14.70
2022-11-10T10:06:20.272Z,15.70
2022-11-10T10:09:16.142Z,19.00
2022-11-10T10:11:54.669Z,13.87
2022-11-10T10:14:32.321Z,20.17
2022-11-10T10:17:38.339Z,18.90
2022-11-10T10:20:10.442Z,17.07
2022-11-10T10:22:43.078Z,21.27
2022-11-10T10:25:14.831Z,19.27
2022-11-10T10:27:42.403Z,18.60
2022-11-10T10:30:16.954Z,15.83
2022-11-10T10:32:43.565Z,13.97
2022-11-10T10:35:14.599Z,18.07
2022-11-10T10:37:48.917Z,15.33
2022-11-10T10:40:18.599Z,16.33
2022-11-10T10:42:45.393Z,11.10
2022-11-10T10:45:13.119Z,16.17
2022-11-10T10:47:40.275Z,17.57
2022-11-10T10:50:26.869Z,14.53
2022-11-10T10:53:17.105Z,15.37
2022-11-10T10:56:00.572Z,15.27
2022-11-10T10:58:27.423Z,12.20
2022-11-10T11:01:04.138Z,14.77
2022-11-10T11:03:30.707Z,12.87
2022-11-10T11:06:03.804Z,11.13
2022-11-10T11:08:30.291Z,13.47
2022-11-10T11:10:57.088Z,12.67
2022-11-10T11:13:26.215Z,16.03
2022-11-10T11:15:58.514Z,16.03
2022-11-10T11:18:27.166Z,16.67
2022-11-10T11:20:59.579Z,12.33
2022-11-10T11:23:29.202Z,14.00
2022-11-10T11:26:02.302Z,20.13
2022-11-10T11:28:41.432Z,16.10
2022-11-10T11:31:13.913Z,10.50
2022-11-10T11:33:49.462Z,12.90
2022-11-10T11:36:30.362Z,15.40
2022-11-10T11:39:15.868Z,16.63
2022-11-10T11:42:04.234Z,12.93
2022-11-10T11:45:12.512Z,15.37
2022-11-10T11:47:45.860Z,18.90
2022-11-10T11:50:29.654Z,12.77
2022-11-10T11:53:19.511Z,11.80
2022-11-10T11:56:15.375Z,12.23
2022-11-10T11:58:46.305Z,15.27
2022-11-10T12:01:15.689Z,11.07
2022-11-10T12:03:55.702Z,13.43
2022-11-10T12:06:50.314Z,13.30
2022-11-10T12:09:38.304Z,12.90
2022-11-10T12:12:21.969Z,16.30
2022-11-10T12:15:04.275Z,20.13
2022-11-10T12:17:55.167Z,15.17
2022-11-10T12:20:43.526Z,15.97
2022-11-10T12:23:21.670Z,14.87
2022-11-10T12:25:57.277Z,15.97
2022-11-10T12:28:28.535Z,12.77
2022-11-10T12:31:01.733Z,9.90
2022-11-10T12:33:47.099Z,9.90
2022-11-10T12:36:15.560Z,12.20
2022-11-10T12:38:47.973Z,11.67
2022-11-10T12:41:20.399Z,16.10
2022-11-10T12:44:08.084Z,15.20
2022-11-10T12:46:34.924Z,11.37
2022-11-10T12:49:11.597Z,8.90
2022-11-10T12:52:03.114Z,14.13
2022-11-10T12:54:29.794Z,16.47
2022-11-10T12:57:01.322Z,16.40
2022-11-10T12:59:31.457Z,12.33
2022-11-10T13:02:02.909Z,10.73
2022-11-10T13:04:30.141Z,12.33
2022-11-10T13:07:02.652Z,8.27
2022-11-10T13:09:32.324Z,11.57
2022-11-10T13:12:20.380Z,9.77
2022-11-10T13:14:47.626Z,12.97
2022-11-10T13:17:26.477Z,11.60
2022-11-10T13:19:54.678Z,11.67
2022-11-10T13:22:43.058Z,11.03
2022-11-10T13:25:37.709Z,9.57
2022-11-10T13:28:05.567Z,7.43
2022-11-10T13:30:45.534Z,13.30
2022-11-10T13:33:36.128Z,7.53
2022-11-10T13:36:02.997Z,10.27
2022-11-10T13:38:32.648Z,10.20
2022-11-10T13:41:17.274Z,7.73
2022-11-10T13:43:54.561Z,9.90
2022-11-10T13:46:35.747Z,8.47
2022-11-10T13:49:16.451Z,9.87
2022-11-10T13:51:50.677Z,9.23
2022-11-10T13:54:39.272Z,11.07
2022-11-10T13:57:14.937Z,6.57
2022-11-10T14:00:01.831Z,6.80
2022-11-10T14:02:34.672Z,9.07
2022-11-10T14:05:02.313Z,9.33
2022-11-10T14:07:30.827Z,7.00
2022-11-10T14:10:05.190Z,11.70
2022-11-10T14:12:43.302Z,10.23
2022-11-10T14:15:13.661Z,12.77
2022-11-10T14:17:47.382Z,9.80
2022-11-10T14:20:44.087Z,7.97
2022-11-10T14:23:21.986Z,6.17
2022-11-10T14:25:55.978Z,3.70
2022-11-10T14:28:34.423Z,7.80
2022-11-10T14:31:01.156Z,11.37
2022-11-10T14:33:28.403Z,11.20
2022-11-10T14:36:02.520Z,7.67
2022-11-10T14:38:33.860Z,7.63
2022-11-10T14:41:02.156Z,9.90
2022-11-10T14:43:39.106Z,6.70
2022-11-10T14:46:07.474Z,7.70
2022-11-10T14:48:36.729Z,7.43
2022-11-10T14:51:12.242Z,11.57
2022-11-10T14:53:40.856Z,7.47
2022-11-10T14:56:15.346Z,6.70
2022-11-10T14:58:42.989Z,7.30
2022-11-10T15:01:23.998Z,9.30
2022-11-10T15:03:50.826Z,9.87
2022-11-10T15:06:17.903Z,12.70
2022-11-10T15:08:44.408Z,6.37
2022-11-10T15:11:49.587Z,6.90
2022-11-10T15:14:39.539Z,5.50
2022-11-10T15:17:11.294Z,7.77
2022-11-10T15:19:58.079Z,7.13
2022-11-10T15:22:34.817Z,9.43
2022-11-10T15:25:17.471Z,10.67
2022-11-10T15:27:58.308Z,6.70
2022-11-10T15:30:26.088Z,3.90
2022-11-10T15:32:55.715Z,7.50
2022-11-10T15:35:31.102Z,8.70
2022-11-10T15:38:21.408Z,7.60
2022-11-10T15:40:50.136Z,9.10
2022-11-10T15:43:19.969Z,6.07
2022-11-10T15:45:49.758Z,4.60
2022-11-10T15:48:17.979Z,6.43
2022-11-10T15:50:46.900Z,6.77
2022-11-10T15:53:16.456Z,4.77
2022-11-10T15:55:44.574Z,9.53
2022-11-10T15:58:25.422Z,7.70
2022-11-10T16:00:52.567Z,10.43
2022-11-10T16:03:21.754Z,5.33
2022-11-10T16:05:48.603Z,7.03
2022-11-10T16:08:18.176Z,6.17
2022-11-10T16:10:47.689Z,7.63
2022-11-10T16:13:17.748Z,6.17
2022-11-10T16:15:45.727Z,5.73
2022-11-10T16:18:14.413Z,5.97
2022-11-10T16:20:41.125Z,4.47
2022-11-10T16:23:07.703Z,6.40
2022-11-10T16:25:35.006Z,5.93
2022-11-10T16:28:03.750Z,5.93
2022-11-10T16:30:30.718Z,8.60
2022-11-10T16:32:57.682Z,7.30
2022-11-10T16:35:24.318Z,5.87
2022-11-10T16:37:51.079Z,7.70
2022-11-10T16:40:20.364Z,6.07
2022-11-10T16:42:46.930Z,6.07
2022-11-10T16:45:19.175Z,8.73
2022-11-10T16:47:48.302Z,6.53
2022-11-10T16:50:30.486Z,5.20
2022-11-10T16:52:57.653Z,7.87
2022-11-10T16:55:24.342Z,5.33
2022-11-10T16:57:51.208Z,6.90
2022-11-10T17:00:18.453Z,11.53
2022-11-10T17:03:01.079Z,9.17
2022-11-10T17:05:28.255Z,4.43
2022-11-10T17:07:55.525Z,7.57
2022-11-10T17:10:22.405Z,8.03
2022-11-10T17:12:48.980Z,5.97
2022-11-10T17:15:16.297Z,8.37
2022-11-10T17:17:48.228Z,8.27
2022-11-10T17:20:30.167Z,7.17
2022-11-10T17:22:56.935Z,5.07
2022-11-10T17:25:26.518Z,6.47
2022-11-10T17:27:53.662Z,5.73
2022-11-10T17:30:21.232Z,9.07
2022-11-10T17:33:05.182Z,7.07
2022-11-10T17:35:37.581Z,5.67
2022-11-10T17:38:09.521Z,6.27
2022-11-10T17:40:36.347Z,4.93
2022-11-10T17:43:03.159Z,5.27
2022-11-10T17:45:32.566Z,8.13
2022-11-10T17:48:00.105Z,8.30
2022-11-10T17:50:26.796Z,9.70
2022-11-10T17:52:53.553Z,9.20
2022-11-10T17:55:28.491Z,8.00
2022-11-10T17:57:57.813Z,7.97
2022-11-10T18:00:25.126Z,9.83
2022-11-10T18:02:55.349Z,8.90
2022-11-10T18:05:22.306Z,6.93
2022-11-10T18:07:52.211Z,12.60
2022-11-10T18:10:18.831Z,10.63
2022-11-10T18:12:45.483Z,12.47
2022-11-10T18:15:13.960Z,8.07
2022-11-10T18:17:41.219Z,8.60
2022-11-10T18:20:11.810Z,10.93
2022-11-10T18:22:39.093Z,8.73
2022-11-10T18:25:06.789Z,12.47
2022-11-10T18:27:33.437Z,10.20
2022-11-10T18:30:00.138Z,9.40
2022-11-10T18:32:27.193Z,7.43
2022-11-10T18:34:54.034Z,9.13
2022-11-10T18:37:21.042Z,10.70
2022-11-10T18:39:47.516Z,6.57
2022-11-10T18:42:14.600Z,6.67
2022-11-10T18:44:41.455Z,8.60
2022-11-10T18:47:09.330Z,6.47
2022-11-10T18:49:35.984Z,6.47
2022-11-10T18:52:02.737Z,5.87
2022-11-10T18:54:29.539Z,9.87
2022-11-10T18:56:56.205Z,10.00
2022-11-10T18:59:22.786Z,6.27
2022-11-10T19:01:50.227Z,8.40
2022-11-10T19:04:17.037Z,6.77
2022-11-10T19:06:44.083Z,7.07
2022-11-10T19:09:11.392Z,8.90
2022-11-10T19:11:38.398Z,8.73
2022-11-10T19:14:05.381Z,7.17
2022-11-10T19:16:32.170Z,8.53
2022-11-10T19:18:58.676Z,10.70
2022-11-10T19:21:29.155Z,7.47
2022-11-10T19:23:56.992Z,9.93
2022-11-10T19:26:24.647Z,7.00
2022-11-10T19:28:53.322Z,6.07
2022-11-10T19:31:23.013Z,8.10
2022-11-10T19:33:52.717Z,6.33
2022-11-10T19:36:24.010Z,10.97
2022-11-10T19:38:51.142Z,6.53
2022-11-10T19:41:20.239Z,8.27
2022-11-10T19:43:47.792Z,7.27
2022-11-10T19:46:17.209Z,10.77
2022-11-10T19:48:44.575Z,9.50
2022-11-10T19:51:13.605Z,5.73
2022-11-10T19:53:41.270Z,7.93
2022-11-10T19:56:12.680Z,9.67
2022-11-10T19:58:39.982Z,6.93
2022-11-10T20:01:08.935Z,7.93
2022-11-10T20:03:35.685Z,8.47
2022-11-10T20:06:05.278Z,8.50
2022-11-10T20:08:32.031Z,8.77
2022-11-10T20:11:09.816Z,9.20
2022-11-10T20:13:36.636Z,7.30
2022-11-10T20:16:05.045Z,10.93
2022-11-10T20:18:31.781Z,6.50
2022-11-10T20:21:08.738Z,9.63
2022-11-10T20:23:35.591Z,6.77
2022-11-10T20:26:06.705Z,10.83
2022-11-10T20:28:35.835Z,10.37
2022-11-10T20:31:03.134Z,7.80
2022-11-10T20:33:31.382Z,7.87
2022-11-10T20:36:11.032Z,6.90
2022-11-10T20:38:40.090Z,6.60
2022-11-10T20:41:19.058Z,6.87
2022-11-10T20:43:46.489Z,5.97
2022-11-10T20:46:48.335Z,5.97
2022-11-10T20:49:07.515Z,9.73
2022-11-10T20:51:34.161Z,8.40
2022-11-10T20:54:01.389Z,5.83
2022-11-10T20:56:29.812Z,7.97
2022-11-10T20:58:57.719Z,8.47
2022-11-10T21:01:24.777Z,7.63
2022-11-10T21:03:51.565Z,6.57
2022-11-10T21:06:18.292Z,6.43
2022-11-10T21:08:44.801Z,10.73
2022-11-10T21:11:32.497Z,6.63
2022-11-10T21:13:59.619Z,6.17
2022-11-10T21:16:26.251Z,6.93
2022-11-10T21:18:55.890Z,7.73
2022-11-10T21:21:28.060Z,9.00
2022-11-10T21:23:57.445Z,7.60
2022-11-10T21:26:24.200Z,8.13
2022-11-10T21:28:50.766Z,7.93
2022-11-10T21:31:18.574Z,8.20
2022-11-10T21:33:45.077Z,7.97
2022-11-10T21:36:11.751Z,14.70
2022-11-10T21:38:38.505Z,10.70
2022-11-10T21:41:05.152Z,7.00
2022-11-10T21:43:31.905Z,7.57
2022-11-10T21:46:01.704Z,7.27
2022-11-10T21:48:28.213Z,8.50
2022-11-10T21:51:02.062Z,7.40
2022-11-10T21:53:28.890Z,5.30
2022-11-10T21:56:03.734Z,9.73
2022-11-10T21:58:30.483Z,9.00
2022-11-10T22:01:03.942Z,7.93
2022-11-10T22:03:30.762Z,7.67
2022-11-10T22:06:12.061Z,7.83
2022-11-10T22:08:39.955Z,5.87
2022-11-10T22:11:31.255Z,8.20
2022-11-10T22:14:16.167Z,8.20
2022-11-10T22:17:07.752Z,6.00
2022-11-10T22:19:35.471Z,5.77
2022-11-10T22:22:04.055Z,5.03
2022-11-10T22:24:30.956Z,6.93
2022-11-10T22:27:02.089Z,8.07
2022-11-10T22:29:31.906Z,5.17
2022-11-10T22:32:02.386Z,8.33
2022-11-10T22:34:28.928Z,5.83
2022-11-10T22:36:55.580Z,5.40
2022-11-10T22:39:22.245Z,7.07
2022-11-10T22:42:07.636Z,7.17
2022-11-10T22:44:34.275Z,6.43
2022-11-10T22:47:00.816Z,4.27
2022-11-10T22:49:27.336Z,6.83
2022-11-10T22:51:57.035Z,5.63
2022-11-10T22:54:23.930Z,3.93
2022-11-10T22:56:51.118Z,8.57
2022-11-10T22:59:18.614Z,8.33
2022-11-10T23:01:45.206Z,5.83
2022-11-10T23:04:12.170Z,4.77
2022-11-10T23:06:38.919Z,7.77
2022-11-10T23:09:06.341Z,6.70
2022-11-10T23:11:33.590Z,4.60
2022-11-10T23:14:00.575Z,7.83
2022-11-10T23:16:33.088Z,6.77
2022-11-10T23:18:59.713Z,7.07
2022-11-10T23:21:30.631Z,5.00
2022-11-10T23:23:57.388Z,3.60
2022-11-10T23:26:26.815Z,5.87
2022-11-10T23:28:53.580Z,7.93
2022-11-10T23:31:22.485Z,4.43
2022-11-10T23:33:51.754Z,4.47
2022-11-10T23:36:19.229Z,8.40
2022-11-10T23:38:47.165Z,6.37
2022-11-10T23:41:15.826Z,6.00
2022-11-10T23:43:42.514Z,7.77
2022-11-10T23:46:09.760Z,3.67
2022-11-10T23:48:37.398Z,6.10
2022-11-10T23:51:05.648Z,8.30
2022-11-10T23:53:32.549Z,4.53
2022-11-10T23:56:01.050Z,6.47
2022-11-10T23:58:28.265Z,4.73
